sensor_id;sensor_type;location;lat;lon;timestamp;P1;durP1;ratioP1;P2;durP2;ratioP2
6358;SDS011;3212;51.460;11.868;2023-05-07T00:02:55;10.37;;;6.43;;
6358;SDS011;3212;51.460;11.868;2023-05-07T00:06:17;10.93;;;6.83;;
6358;SDS011;3212;51.460;11.868;2023-05-07T00:09:39;12.20;;;7.37;;
6358;SDS011;3212;51.460;11.868;2023-05-07T00:13:01;11.37;;;7.20;;
6358;SDS011;3212;51.460;11.868;2023-05-07T00:16:23;11.83;;;7.73;;
6358;SDS011;3212;51.460;11.868;2023-05-07T00:19:45;12.77;;;7.80;;
6358;SDS011;3212;51.460;11.868;2023-05-07T00:23:07;13.43;;;7.47;;
6358;SDS011;3212;51.460;11.868;2023-05-07T00:26:28;13.93;;;8.10;;
6358;SDS011;3212;51.460;11.868;2023-05-07T00:29:51;14.67;;;7.63;;
6358;SDS011;3212;51.460;11.868;2023-05-07T00:33:13;12.93;;;8.10;;
6358;SDS011;3212;51.460;11.868;2023-05-07T00:36:35;17.80;;;8.90;;
6358;SDS011;3212;51.460;11.868;2023-05-07T00:39:57;16.55;;;9.05;;
6358;SDS011;3212;51.460;11.868;2023-05-07T00:43:19;12.40;;;7.47;;
6358;SDS011;3212;51.460;11.868;2023-05-07T00:46:41;14.30;;;7.43;;
6358;SDS011;3212;51.460;11.868;2023-05-07T00:50:03;15.17;;;7.97;;
6358;SDS011;3212;51.460;11.868;2023-05-07T00:53:25;12.63;;;7.57;;
6358;SDS011;3212;51.460;11.868;2023-05-07T00:56:47;14.07;;;7.80;;
6358;SDS011;3212;51.460;11.868;2023-05-07T01:00:09;14.97;;;7.73;;
6358;SDS011;3212;51.460;11.868;2023-05-07T01:03:32;12.77;;;7.83;;
6358;SDS011;3212;51.460;11.868;2023-05-07T01:06:54;13.63;;;7.90;;
6358;SDS011;3212;51.460;11.868;2023-05-07T01:10:16;13.30;;;7.33;;
6358;SDS011;3212;51.460;11.868;2023-05-07T01:13:39;13.97;;;7.80;;
6358;SDS011;3212;51.460;11.868;2023-05-07T01:17:01;13.57;;;7.80;;
6358;SDS011;3212;51.460;11.868;2023-05-07T01:20:22;11.23;;;7.23;;
6358;SDS011;3212;51.460;11.868;2023-05-07T01:23:44;14.60;;;8.07;;
6358;SDS011;3212;51.460;11.868;2023-05-07T01:27:06;14.93;;;8.30;;
6358;SDS011;3212;51.460;11.868;2023-05-07T01:30:28;14.90;;;8.33;;
6358;SDS011;3212;51.460;11.868;2023-05-07T01:33:50;13.33;;;8.83;;
6358;SDS011;3212;51.460;11.868;2023-05-07T01:37:12;14.13;;;8.87;;
6358;SDS011;3212;51.460;11.868;2023-05-07T01:40:35;14.60;;;9.07;;
6358;SDS011;3212;51.460;11.868;2023-05-07T01:43:56;14.10;;;8.90;;
6358;SDS011;3212;51.460;11.868;2023-05-07T01:47:18;13.57;;;8.20;;
6358;SDS011;3212;51.460;11.868;2023-05-07T01:50:40;14.63;;;8.70;;
6358;SDS011;3212;51.460;11.868;2023-05-07T01:54:02;13.50;;;8.40;;
6358;SDS011;3212;51.460;11.868;2023-05-07T01:57:24;11.77;;;7.63;;
6358;SDS011;3212;51.460;11.868;2023-05-07T02:00:46;11.67;;;7.53;;
6358;SDS011;3212;51.460;11.868;2023-05-07T02:04:07;11.27;;;7.57;;
6358;SDS011;3212;51.460;11.868;2023-05-07T02:07:29;13.20;;;7.40;;
6358;SDS011;3212;51.460;11.868;2023-05-07T02:10:51;11.52;;;7.72;;
6358;SDS011;3212;51.460;11.868;2023-05-07T02:14:13;11.70;;;7.27;;
6358;SDS011;3212;51.460;11.868;2023-05-07T02:17:35;13.47;;;7.90;;
6358;SDS011;3212;51.460;11.868;2023-05-07T02:20:57;11.80;;;7.43;;
6358;SDS011;3212;51.460;11.868;2023-05-07T02:24:19;13.00;;;8.57;;
6358;SDS011;3212;51.460;11.868;2023-05-07T02:27:40;10.47;;;6.70;;
6358;SDS011;3212;51.460;11.868;2023-05-07T02:31:03;11.70;;;7.20;;
6358;SDS011;3212;51.460;11.868;2023-05-07T02:34:26;11.53;;;7.63;;
6358;SDS011;3212;51.460;11.868;2023-05-07T02:37:48;12.37;;;7.73;;
6358;SDS011;3212;51.460;11.868;2023-05-07T02:41:10;11.20;;;7.90;;
6358;SDS011;3212;51.460;11.868;2023-05-07T02:44:31;10.60;;;7.20;;
6358;SDS011;3212;51.460;11.868;2023-05-07T02:47:53;12.40;;;8.00;;
6358;SDS011;3212;51.460;11.868;2023-05-07T02:51:17;11.50;;;7.27;;
6358;SDS011;3212;51.460;11.868;2023-05-07T02:54:37;12.10;;;7.32;;
6358;SDS011;3212;51.460;11.868;2023-05-07T02:57:59;13.53;;;8.00;;
6358;SDS011;3212;51.460;11.868;2023-05-07T03:01:21;12.82;;;7.35;;
6358;SDS011;3212;51.460;11.868;2023-05-07T03:04:43;13.77;;;7.43;;
6358;SDS011;3212;51.460;11.868;2023-05-07T03:08:05;11.97;;;7.50;;
6358;SDS011;3212;51.460;11.868;2023-05-07T03:11:27;12.00;;;7.77;;
6358;SDS011;3212;51.460;11.868;2023-05-07T03:14:50;14.00;;;8.17;;
6358;SDS011;3212;51.460;11.868;2023-05-07T03:18:12;15.23;;;8.50;;
6358;SDS011;3212;51.460;11.868;2023-05-07T03:21:33;14.53;;;8.57;;
6358;SDS011;3212;51.460;11.868;2023-05-07T03:24:55;13.20;;;8.53;;
6358;SDS011;3212;51.460;11.868;2023-05-07T03:28:17;12.63;;;8.37;;
6358;SDS011;3212;51.460;11.868;2023-05-07T03:31:39;16.63;;;9.40;;
6358;SDS011;3212;51.460;11.868;2023-05-07T03:35:01;14.83;;;8.50;;
6358;SDS011;3212;51.460;11.868;2023-05-07T03:38:23;15.47;;;9.03;;
6358;SDS011;3212;51.460;11.868;2023-05-07T03:41:44;12.77;;;8.63;;
6358;SDS011;3212;51.460;11.868;2023-05-07T03:45:07;18.30;;;9.47;;
6358;SDS011;3212;51.460;11.868;2023-05-07T03:48:29;18.30;;;10.37;;
6358;SDS011;3212;51.460;11.868;2023-05-07T03:51:51;18.73;;;9.97;;
6358;SDS011;3212;51.460;11.868;2023-05-07T03:55:14;16.13;;;9.80;;
6358;SDS011;3212;51.460;11.868;2023-05-07T03:58:36;18.67;;;11.30;;
6358;SDS011;3212;51.460;11.868;2023-05-07T04:01:58;18.40;;;11.47;;
6358;SDS011;3212;51.460;11.868;2023-05-07T04:05:21;18.23;;;10.63;;
6358;SDS011;3212;51.460;11.868;2023-05-07T04:08:43;17.20;;;10.20;;
6358;SDS011;3212;51.460;11.868;2023-05-07T04:12:04;18.57;;;10.80;;
6358;SDS011;3212;51.460;11.868;2023-05-07T04:15:26;17.00;;;10.50;;
6358;SDS011;3212;51.460;11.868;2023-05-07T04:18:48;19.43;;;11.30;;
6358;SDS011;3212;51.460;11.868;2023-05-07T04:22:10;19.80;;;11.40;;
6358;SDS011;3212;51.460;11.868;2023-05-07T04:25:33;18.43;;;10.60;;
6358;SDS011;3212;51.460;11.868;2023-05-07T04:28:55;17.63;;;10.30;;
6358;SDS011;3212;51.460;11.868;2023-05-07T04:32:16;16.37;;;10.67;;
6358;SDS011;3212;51.460;11.868;2023-05-07T04:35:38;17.93;;;10.97;;
6358;SDS011;3212;51.460;11.868;2023-05-07T04:39:00;18.03;;;11.50;;
6358;SDS011;3212;51.460;11.868;2023-05-07T04:42:23;17.60;;;11.00;;
6358;SDS011;3212;51.460;11.868;2023-05-07T04:45:45;18.73;;;11.47;;
6358;SDS011;3212;51.460;11.868;2023-05-07T04:49:06;18.40;;;11.23;;
6358;SDS011;3212;51.460;11.868;2023-05-07T04:52:28;17.53;;;10.43;;
6358;SDS011;3212;51.460;11.868;2023-05-07T04:55:57;19.43;;;11.27;;
6358;SDS011;3212;51.460;11.868;2023-05-07T04:59:19;20.93;;;11.97;;
6358;SDS011;3212;51.460;11.868;2023-05-07T05:02:41;17.73;;;10.97;;
6358;SDS011;3212;51.460;11.868;2023-05-07T05:06:03;22.17;;;12.40;;
6358;SDS011;3212;51.460;11.868;2023-05-07T05:09:26;20.17;;;11.83;;
6358;SDS011;3212;51.460;11.868;2023-05-07T05:12:47;20.73;;;11.80;;
6358;SDS011;3212;51.460;11.868;2023-05-07T05:16:10;21.50;;;12.17;;
6358;SDS011;3212;51.460;11.868;2023-05-07T05:19:31;19.10;;;11.80;;
6358;SDS011;3212;51.460;11.868;2023-05-07T05:22:53;20.23;;;11.93;;
6358;SDS011;3212;51.460;11.868;2023-05-07T05:26:15;20.00;;;11.93;;
6358;SDS011;3212;51.460;11.868;2023-05-07T05:29:37;20.87;;;11.80;;
6358;SDS011;3212;51.460;11.868;2023-05-07T05:32:59;21.90;;;12.13;;
6358;SDS011;3212;51.460;11.868;2023-05-07T05:36:21;22.87;;;12.53;;
6358;SDS011;3212;51.460;11.868;2023-05-07T05:39:43;22.10;;;11.13;;
6358;SDS011;3212;51.460;11.868;2023-05-07T05:43:05;18.20;;;11.37;;
6358;SDS011;3212;51.460;11.868;2023-05-07T05:46:26;18.80;;;11.70;;
6358;SDS011;3212;51.460;11.868;2023-05-07T05:49:48;21.63;;;12.80;;
6358;SDS011;3212;51.460;11.868;2023-05-07T05:53:10;20.40;;;12.20;;
6358;SDS011;3212;51.460;11.868;2023-05-07T05:56:32;17.60;;;11.40;;
6358;SDS011;3212;51.460;11.868;2023-05-07T05:59:54;20.00;;;11.67;;
6358;SDS011;3212;51.460;11.868;2023-05-07T06:03:15;17.93;;;11.03;;
6358;SDS011;3212;51.460;11.868;2023-05-07T06:06:37;18.10;;;11.67;;
6358;SDS011;3212;51.460;11.868;2023-05-07T06:09:59;18.20;;;11.03;;
6358;SDS011;3212;51.460;11.868;2023-05-07T06:13:21;21.83;;;12.43;;
6358;SDS011;3212;51.460;11.868;2023-05-07T06:16:43;16.80;;;10.77;;
6358;SDS011;3212;51.460;11.868;2023-05-07T06:20:05;18.30;;;11.67;;
6358;SDS011;3212;51.460;11.868;2023-05-07T06:23:28;16.87;;;10.85;;
6358;SDS011;3212;51.460;11.868;2023-05-07T06:26:50;18.80;;;11.27;;
6358;SDS011;3212;51.460;11.868;2023-05-07T06:30:11;19.43;;;12.10;;
6358;SDS011;3212;51.460;11.868;2023-05-07T06:33:33;16.83;;;11.03;;
6358;SDS011;3212;51.460;11.868;2023-05-07T06:36:55;16.70;;;10.87;;
6358;SDS011;3212;51.460;11.868;2023-05-07T06:40:17;15.60;;;10.47;;
6358;SDS011;3212;51.460;11.868;2023-05-07T06:43:39;16.20;;;10.13;;
6358;SDS011;3212;51.460;11.868;2023-05-07T06:47:01;14.70;;;10.10;;
6358;SDS011;3212;51.460;11.868;2023-05-07T06:50:23;14.50;;;9.93;;
6358;SDS011;3212;51.460;11.868;2023-05-07T06:53:45;19.87;;;12.67;;
6358;SDS011;3212;51.460;11.868;2023-05-07T06:57:07;11.57;;;7.90;;
6358;SDS011;3212;51.460;11.868;2023-05-07T07:00:29;12.00;;;8.03;;
6358;SDS011;3212;51.460;11.868;2023-05-07T07:03:51;14.17;;;8.30;;
6358;SDS011;3212;51.460;11.868;2023-05-07T07:07:13;10.10;;;7.20;;
6358;SDS011;3212;51.460;11.868;2023-05-07T07:10:34;11.80;;;8.60;;
6358;SDS011;3212;51.460;11.868;2023-05-07T07:13:56;9.90;;;7.47;;
6358;SDS011;3212;51.460;11.868;2023-05-07T07:17:18;9.60;;;6.70;;
6358;SDS011;3212;51.460;11.868;2023-05-07T07:20:40;10.27;;;6.83;;
6358;SDS011;3212;51.460;11.868;2023-05-07T07:24:02;10.33;;;6.90;;
6358;SDS011;3212;51.460;11.868;2023-05-07T07:27:25;9.63;;;6.60;;
6358;SDS011;3212;51.460;11.868;2023-05-07T07:30:47;9.27;;;6.43;;
6358;SDS011;3212;51.460;11.868;2023-05-07T07:34:09;10.10;;;6.87;;
6358;SDS011;3212;51.460;11.868;2023-05-07T07:37:30;11.73;;;7.53;;
6358;SDS011;3212;51.460;11.868;2023-05-07T07:40:52;12.03;;;7.87;;
6358;SDS011;3212;51.460;11.868;2023-05-07T07:44:15;12.93;;;8.13;;
6358;SDS011;3212;51.460;11.868;2023-05-07T07:47:37;14.27;;;8.82;;
6358;SDS011;3212;51.460;11.868;2023-05-07T07:50:59;13.63;;;8.47;;
6358;SDS011;3212;51.460;11.868;2023-05-07T07:54:21;14.63;;;9.33;;
6358;SDS011;3212;51.460;11.868;2023-05-07T07:57:43;14.50;;;9.50;;
6358;SDS011;3212;51.460;11.868;2023-05-07T08:01:05;13.47;;;8.90;;
6358;SDS011;3212;51.460;11.868;2023-05-07T08:04:27;13.77;;;9.73;;
6358;SDS011;3212;51.460;11.868;2023-05-07T08:07:49;15.37;;;10.10;;
6358;SDS011;3212;51.460;11.868;2023-05-07T08:11:13;18.67;;;9.87;;
6358;SDS011;3212;51.460;11.868;2023-05-07T08:14:35;15.40;;;9.97;;
6358;SDS011;3212;51.460;11.868;2023-05-07T08:17:57;12.87;;;8.40;;
6358;SDS011;3212;51.460;11.868;2023-05-07T08:21:19;16.20;;;8.53;;
6358;SDS011;3212;51.460;11.868;2023-05-07T08:24:41;10.30;;;7.72;;
6358;SDS011;3212;51.460;11.868;2023-05-07T08:28:03;13.83;;;8.70;;
6358;SDS011;3212;51.460;11.868;2023-05-07T08:31:24;12.27;;;9.10;;
6358;SDS011;3212;51.460;11.868;2023-05-07T08:34:47;10.73;;;7.87;;
6358;SDS011;3212;51.460;11.868;2023-05-07T08:38:08;10.57;;;7.50;;
6358;SDS011;3212;51.460;11.868;2023-05-07T08:41:30;9.80;;;7.03;;
6358;SDS011;3212;51.460;11.868;2023-05-07T08:44:52;9.30;;;7.37;;
6358;SDS011;3212;51.460;11.868;2023-05-07T08:48:15;11.60;;;7.50;;
6358;SDS011;3212;51.460;11.868;2023-05-07T08:51:36;7.50;;;6.70;;
6358;SDS011;3212;51.460;11.868;2023-05-07T08:54:58;10.10;;;7.53;;
6358;SDS011;3212;51.460;11.868;2023-05-07T08:58:19;8.10;;;6.30;;
6358;SDS011;3212;51.460;11.868;2023-05-07T09:01:41;8.50;;;6.53;;
6358;SDS011;3212;51.460;11.868;2023-05-07T09:05:03;7.40;;;5.93;;
6358;SDS011;3212;51.460;11.868;2023-05-07T09:08:26;8.27;;;6.50;;
6358;SDS011;3212;51.460;11.868;2023-05-07T09:11:47;9.23;;;6.70;;
6358;SDS011;3212;51.460;11.868;2023-05-07T09:15:09;8.63;;;6.50;;
6358;SDS011;3212;51.460;11.868;2023-05-07T09:18:31;7.83;;;6.40;;
6358;SDS011;3212;51.460;11.868;2023-05-07T09:22:00;7.33;;;5.60;;
6358;SDS011;3212;51.460;11.868;2023-05-07T09:25:27;6.57;;;5.87;;
6358;SDS011;3212;51.460;11.868;2023-05-07T09:28:50;9.07;;;6.40;;
6358;SDS011;3212;51.460;11.868;2023-05-07T09:32:11;7.63;;;6.47;;
6358;SDS011;3212;51.460;11.868;2023-05-07T09:35:39;7.20;;;6.00;;
6358;SDS011;3212;51.460;11.868;2023-05-07T09:39:01;7.13;;;6.00;;
6358;SDS011;3212;51.460;11.868;2023-05-07T09:42:23;7.10;;;5.00;;
6358;SDS011;3212;51.460;11.868;2023-05-07T09:45:45;7.23;;;6.10;;
6358;SDS011;3212;51.460;11.868;2023-05-07T09:49:11;8.70;;;5.93;;
6358;SDS011;3212;51.460;11.868;2023-05-07T09:52:30;8.37;;;5.97;;
6358;SDS011;3212;51.460;11.868;2023-05-07T09:55:53;7.87;;;5.97;;
6358;SDS011;3212;51.460;11.868;2023-05-07T09:59:15;7.43;;;6.30;;
6358;SDS011;3212;51.460;11.868;2023-05-07T10:02:37;8.13;;;6.40;;
6358;SDS011;3212;51.460;11.868;2023-05-07T10:05:58;8.00;;;6.90;;
6358;SDS011;3212;51.460;11.868;2023-05-07T10:09:21;8.00;;;6.60;;
6358;SDS011;3212;51.460;11.868;2023-05-07T10:12:44;9.20;;;6.97;;
6358;SDS011;3212;51.460;11.868;2023-05-07T10:16:06;10.60;;;7.30;;
6358;SDS011;3212;51.460;11.868;2023-05-07T10:23:04;11.03;;;8.40;;
6358;SDS011;3212;51.460;11.868;2023-05-07T10:26:27;10.90;;;7.80;;
6358;SDS011;3212;51.460;11.868;2023-05-07T10:29:54;12.20;;;8.73;;
6358;SDS011;3212;51.460;11.868;2023-05-07T10:33:28;11.53;;;8.30;;
6358;SDS011;3212;51.460;11.868;2023-05-07T10:36:49;11.70;;;8.80;;
6358;SDS011;3212;51.460;11.868;2023-05-07T10:40:11;10.57;;;7.93;;
6358;SDS011;3212;51.460;11.868;2023-05-07T10:43:38;11.30;;;8.47;;
6358;SDS011;3212;51.460;11.868;2023-05-07T10:47:05;10.33;;;7.73;;
6358;SDS011;3212;51.460;11.868;2023-05-07T10:50:26;11.80;;;8.30;;
6358;SDS011;3212;51.460;11.868;2023-05-07T10:53:48;13.40;;;9.00;;
6358;SDS011;3212;51.460;11.868;2023-05-07T11:00:44;12.70;;;8.97;;
6358;SDS011;3212;51.460;11.868;2023-05-07T11:04:14;11.80;;;9.00;;
6358;SDS011;3212;51.460;11.868;2023-05-07T11:07:36;15.83;;;9.30;;
6358;SDS011;3212;51.460;11.868;2023-05-07T11:10:59;11.70;;;8.90;;
6358;SDS011;3212;51.460;11.868;2023-05-07T11:18:04;12.90;;;8.13;;
6358;SDS011;3212;51.460;11.868;2023-05-07T11:24:55;15.03;;;10.40;;
6358;SDS011;3212;51.460;11.868;2023-05-07T11:28:17;12.80;;;9.30;;
6358;SDS011;3212;51.460;11.868;2023-05-07T11:31:39;11.70;;;8.10;;
6358;SDS011;3212;51.460;11.868;2023-05-07T11:35:01;9.33;;;7.40;;
6358;SDS011;3212;51.460;11.868;2023-05-07T11:38:23;9.30;;;6.90;;
6358;SDS011;3212;51.460;11.868;2023-05-07T11:41:45;10.43;;;7.03;;
6358;SDS011;3212;51.460;11.868;2023-05-07T11:45:07;8.00;;;6.23;;
6358;SDS011;3212;51.460;11.868;2023-05-07T11:48:29;9.00;;;6.70;;
6358;SDS011;3212;51.460;11.868;2023-05-07T11:51:51;10.27;;;7.20;;
6358;SDS011;3212;51.460;11.868;2023-05-07T11:55:13;10.30;;;7.80;;
6358;SDS011;3212;51.460;11.868;2023-05-07T11:58:35;13.40;;;8.53;;
6358;SDS011;3212;51.460;11.868;2023-05-07T12:01:57;11.93;;;7.63;;
6358;SDS011;3212;51.460;11.868;2023-05-07T12:05:18;11.50;;;7.73;;
6358;SDS011;3212;51.460;11.868;2023-05-07T12:08:40;11.50;;;7.67;;
6358;SDS011;3212;51.460;11.868;2023-05-07T12:12:03;10.60;;;8.33;;
6358;SDS011;3212;51.460;11.868;2023-05-07T12:15:25;10.37;;;7.67;;
6358;SDS011;3212;51.460;11.868;2023-05-07T12:18:47;10.00;;;7.80;;
6358;SDS011;3212;51.460;11.868;2023-05-07T12:22:09;8.57;;;7.20;;
6358;SDS011;3212;51.460;11.868;2023-05-07T12:25:38;9.87;;;7.60;;
6358;SDS011;3212;51.460;11.868;2023-05-07T12:29:00;10.30;;;7.55;;
6358;SDS011;3212;51.460;11.868;2023-05-07T12:32:22;9.50;;;7.20;;
6358;SDS011;3212;51.460;11.868;2023-05-07T12:35:44;9.10;;;6.50;;
6358;SDS011;3212;51.460;11.868;2023-05-07T12:39:09;7.43;;;6.03;;
6358;SDS011;3212;51.460;11.868;2023-05-07T12:42:32;7.97;;;6.60;;
6358;SDS011;3212;51.460;11.868;2023-05-07T12:45:54;7.03;;;5.80;;
6358;SDS011;3212;51.460;11.868;2023-05-07T12:49:14;6.20;;;5.37;;
6358;SDS011;3212;51.460;11.868;2023-05-07T12:52:36;8.60;;;5.70;;
6358;SDS011;3212;51.460;11.868;2023-05-07T12:55:58;10.10;;;6.60;;
6358;SDS011;3212;51.460;11.868;2023-05-07T12:59:30;8.40;;;6.27;;
6358;SDS011;3212;51.460;11.868;2023-05-07T13:02:42;8.77;;;6.97;;
6358;SDS011;3212;51.460;11.868;2023-05-07T13:06:06;10.03;;;7.63;;
6358;SDS011;3212;51.460;11.868;2023-05-07T13:09:30;10.67;;;7.83;;
6358;SDS011;3212;51.460;11.868;2023-05-07T13:12:52;10.73;;;8.10;;
6358;SDS011;3212;51.460;11.868;2023-05-07T13:16:14;11.80;;;8.43;;
6358;SDS011;3212;51.460;11.868;2023-05-07T13:19:36;10.43;;;7.90;;
6358;SDS011;3212;51.460;11.868;2023-05-07T13:22:58;9.23;;;6.80;;
6358;SDS011;3212;51.460;11.868;2023-05-07T13:26:20;10.10;;;7.57;;
6358;SDS011;3212;51.460;11.868;2023-05-07T13:29:42;9.40;;;7.43;;
6358;SDS011;3212;51.460;11.868;2023-05-07T13:33:04;10.77;;;8.02;;
6358;SDS011;3212;51.460;11.868;2023-05-07T13:36:26;12.67;;;7.60;;
6358;SDS011;3212;51.460;11.868;2023-05-07T13:39:48;9.53;;;6.70;;
6358;SDS011;3212;51.460;11.868;2023-05-07T13:43:09;7.97;;;6.00;;
6358;SDS011;3212;51.460;11.868;2023-05-07T13:46:31;7.70;;;6.30;;
6358;SDS011;3212;51.460;11.868;2023-05-07T13:49:53;7.07;;;6.10;;
6358;SDS011;3212;51.460;11.868;2023-05-07T13:53:15;6.35;;;5.32;;
6358;SDS011;3212;51.460;11.868;2023-05-07T13:56:37;6.17;;;5.30;;
6358;SDS011;3212;51.460;11.868;2023-05-07T13:59:59;8.20;;;5.10;;
6358;SDS011;3212;51.460;11.868;2023-05-07T14:03:20;4.90;;;4.20;;
6358;SDS011;3212;51.460;11.868;2023-05-07T14:06:42;5.37;;;4.57;;
6358;SDS011;3212;51.460;11.868;2023-05-07T14:10:04;4.73;;;4.10;;
6358;SDS011;3212;51.460;11.868;2023-05-07T14:13:27;7.07;;;4.67;;
6358;SDS011;3212;51.460;11.868;2023-05-07T14:16:49;6.60;;;5.05;;
6358;SDS011;3212;51.460;11.868;2023-05-07T14:20:12;6.20;;;4.87;;
6358;SDS011;3212;51.460;11.868;2023-05-07T14:23:33;5.40;;;4.77;;
6358;SDS011;3212;51.460;11.868;2023-05-07T14:26:55;7.27;;;4.60;;
6358;SDS011;3212;51.460;11.868;2023-05-07T14:30:17;4.90;;;4.17;;
6358;SDS011;3212;51.460;11.868;2023-05-07T14:33:40;5.10;;;4.23;;
6358;SDS011;3212;51.460;11.868;2023-05-07T14:37:02;5.03;;;4.20;;
6358;SDS011;3212;51.460;11.868;2023-05-07T14:40:24;5.73;;;4.57;;
6358;SDS011;3212;51.460;11.868;2023-05-07T14:43:46;10.43;;;5.80;;
6358;SDS011;3212;51.460;11.868;2023-05-07T14:47:07;6.90;;;4.60;;
6358;SDS011;3212;51.460;11.868;2023-05-07T14:50:29;8.47;;;5.10;;
6358;SDS011;3212;51.460;11.868;2023-05-07T14:53:51;6.77;;;4.87;;
6358;SDS011;3212;51.460;11.868;2023-05-07T14:57:13;5.57;;;4.47;;
6358;SDS011;3212;51.460;11.868;2023-05-07T15:00:35;5.67;;;4.57;;
6358;SDS011;3212;51.460;11.868;2023-05-07T15:03:57;4.40;;;4.00;;
6358;SDS011;3212;51.460;11.868;2023-05-07T15:07:19;5.10;;;4.23;;
6358;SDS011;3212;51.460;11.868;2023-05-07T15:10:41;4.27;;;3.87;;
6358;SDS011;3212;51.460;11.868;2023-05-07T15:14:03;4.37;;;3.97;;
6358;SDS011;3212;51.460;11.868;2023-05-07T15:17:26;4.60;;;3.97;;
6358;SDS011;3212;51.460;11.868;2023-05-07T15:20:48;5.10;;;3.70;;
6358;SDS011;3212;51.460;11.868;2023-05-07T15:24:10;4.03;;;3.37;;
6358;SDS011;3212;51.460;11.868;2023-05-07T15:27:31;4.18;;;3.78;;
6358;SDS011;3212;51.460;11.868;2023-05-07T15:30:54;5.00;;;3.60;;
6358;SDS011;3212;51.460;11.868;2023-05-07T15:34:17;3.80;;;3.17;;
6358;SDS011;3212;51.460;11.868;2023-05-07T15:37:39;3.73;;;3.43;;
6358;SDS011;3212;51.460;11.868;2023-05-07T15:41:00;4.10;;;3.30;;
6358;SDS011;3212;51.460;11.868;2023-05-07T15:44:22;3.90;;;3.40;;
6358;SDS011;3212;51.460;11.868;2023-05-07T15:47:44;4.37;;;3.33;;
6358;SDS011;3212;51.460;11.868;2023-05-07T15:51:06;5.07;;;3.40;;
6358;SDS011;3212;51.460;11.868;2023-05-07T15:54:28;4.17;;;3.60;;
6358;SDS011;3212;51.460;11.868;2023-05-07T15:57:50;3.30;;;3.00;;
6358;SDS011;3212;51.460;11.868;2023-05-07T16:01:11;4.00;;;2.97;;
6358;SDS011;3212;51.460;11.868;2023-05-07T16:04:34;4.10;;;3.70;;
6358;SDS011;3212;51.460;11.868;2023-05-07T16:07:56;3.57;;;3.27;;
6358;SDS011;3212;51.460;11.868;2023-05-07T16:11:19;4.10;;;3.70;;
6358;SDS011;3212;51.460;11.868;2023-05-07T16:14:41;4.83;;;3.83;;
6358;SDS011;3212;51.460;11.868;2023-05-07T16:18:03;4.03;;;3.53;;
6358;SDS011;3212;51.460;11.868;2023-05-07T16:21:25;4.50;;;3.83;;
6358;SDS011;3212;51.460;11.868;2023-05-07T16:24:47;4.40;;;3.97;;
6358;SDS011;3212;51.460;11.868;2023-05-07T16:28:09;6.20;;;4.20;;
6358;SDS011;3212;51.460;11.868;2023-05-07T16:31:31;5.10;;;4.17;;
6358;SDS011;3212;51.460;11.868;2023-05-07T16:34:53;5.07;;;4.40;;
6358;SDS011;3212;51.460;11.868;2023-05-07T16:38:16;7.03;;;3.90;;
6358;SDS011;3212;51.460;11.868;2023-05-07T16:41:38;6.07;;;4.10;;
6358;SDS011;3212;51.460;11.868;2023-05-07T16:48:29;5.73;;;3.83;;
6358;SDS011;3212;51.460;11.868;2023-05-07T16:51:51;4.90;;;4.37;;
6358;SDS011;3212;51.460;11.868;2023-05-07T16:55:12;5.47;;;4.00;;
6358;SDS011;3212;51.460;11.868;2023-05-07T16:58:34;10.97;;;4.60;;
6358;SDS011;3212;51.460;11.868;2023-05-07T17:01:56;8.83;;;5.20;;
6358;SDS011;3212;51.460;11.868;2023-05-07T17:05:19;5.53;;;4.97;;
6358;SDS011;3212;51.460;11.868;2023-05-07T17:08:41;6.73;;;5.17;;
6358;SDS011;3212;51.460;11.868;2023-05-07T17:12:03;5.20;;;4.70;;
6358;SDS011;3212;51.460;11.868;2023-05-07T17:15:26;5.97;;;4.80;;
6358;SDS011;3212;51.460;11.868;2023-05-07T17:18:47;6.73;;;5.00;;
6358;SDS011;3212;51.460;11.868;2023-05-07T17:22:09;9.17;;;5.23;;
6358;SDS011;3212;51.460;11.868;2023-05-07T17:25:31;7.07;;;5.00;;
6358;SDS011;3212;51.460;11.868;2023-05-07T17:28:53;7.47;;;5.20;;
6358;SDS011;3212;51.460;11.868;2023-05-07T17:32:15;6.90;;;5.47;;
6358;SDS011;3212;51.460;11.868;2023-05-07T17:35:37;7.00;;;5.47;;
6358;SDS011;3212;51.460;11.868;2023-05-07T17:38:58;7.60;;;5.70;;
6358;SDS011;3212;51.460;11.868;2023-05-07T17:42:21;10.03;;;6.00;;
6358;SDS011;3212;51.460;11.868;2023-05-07T17:45:43;7.80;;;5.83;;
6358;SDS011;3212;51.460;11.868;2023-05-07T17:49:05;7.37;;;5.60;;
6358;SDS011;3212;51.460;11.868;2023-05-07T17:52:27;8.30;;;5.90;;
6358;SDS011;3212;51.460;11.868;2023-05-07T17:55:49;9.67;;;6.13;;
6358;SDS011;3212;51.460;11.868;2023-05-07T17:59:11;8.67;;;6.37;;
6358;SDS011;3212;51.460;11.868;2023-05-07T18:02:33;10.70;;;5.97;;
6358;SDS011;3212;51.460;11.868;2023-05-07T18:05:55;10.70;;;6.50;;
6358;SDS011;3212;51.460;11.868;2023-05-07T18:09:16;8.40;;;6.00;;
6358;SDS011;3212;51.460;11.868;2023-05-07T18:12:38;8.73;;;6.27;;
6358;SDS011;3212;51.460;11.868;2023-05-07T18:16:01;7.70;;;5.40;;
6358;SDS011;3212;51.460;11.868;2023-05-07T18:19:23;10.00;;;5.90;;
6358;SDS011;3212;51.460;11.868;2023-05-07T18:22:45;9.03;;;6.37;;
6358;SDS011;3212;51.460;11.868;2023-05-07T18:26:08;8.90;;;6.60;;
6358;SDS011;3212;51.460;11.868;2023-05-07T18:29:30;8.53;;;6.50;;
6358;SDS011;3212;51.460;11.868;2023-05-07T18:32:52;9.33;;;6.60;;
6358;SDS011;3212;51.460;11.868;2023-05-07T18:36:14;7.45;;;6.07;;
6358;SDS011;3212;51.460;11.868;2023-05-07T18:39:35;8.97;;;6.70;;
6358;SDS011;3212;51.460;11.868;2023-05-07T18:42:57;8.47;;;6.20;;
6358;SDS011;3212;51.460;11.868;2023-05-07T18:46:19;11.60;;;6.43;;
6358;SDS011;3212;51.460;11.868;2023-05-07T18:49:41;9.37;;;6.90;;
6358;SDS011;3212;51.460;11.868;2023-05-07T18:53:03;8.00;;;6.13;;
6358;SDS011;3212;51.460;11.868;2023-05-07T18:56:25;9.87;;;6.87;;
6358;SDS011;3212;51.460;11.868;2023-05-07T18:59:47;8.10;;;6.40;;
6358;SDS011;3212;51.460;11.868;2023-05-07T19:03:09;8.97;;;6.30;;
6358;SDS011;3212;51.460;11.868;2023-05-07T19:06:30;7.57;;;5.90;;
6358;SDS011;3212;51.460;11.868;2023-05-07T19:09:53;9.10;;;6.60;;
6358;SDS011;3212;51.460;11.868;2023-05-07T19:13:15;9.73;;;7.07;;
6358;SDS011;3212;51.460;11.868;2023-05-07T19:16:37;14.10;;;6.50;;
6358;SDS011;3212;51.460;11.868;2023-05-07T19:20:00;8.50;;;6.20;;
6358;SDS011;3212;51.460;11.868;2023-05-07T19:23:22;11.60;;;6.50;;
6358;SDS011;3212;51.460;11.868;2023-05-07T19:26:43;8.63;;;6.33;;
6358;SDS011;3212;51.460;11.868;2023-05-07T19:30:06;13.40;;;7.57;;
6358;SDS011;3212;51.460;11.868;2023-05-07T19:33:28;8.20;;;6.30;;
6358;SDS011;3212;51.460;11.868;2023-05-07T19:36:50;10.10;;;6.67;;
6358;SDS011;3212;51.460;11.868;2023-05-07T19:40:12;11.20;;;6.90;;
6358;SDS011;3212;51.460;11.868;2023-05-07T19:43:35;10.10;;;7.67;;
6358;SDS011;3212;51.460;11.868;2023-05-07T19:46:57;10.97;;;7.70;;
6358;SDS011;3212;51.460;11.868;2023-05-07T19:50:20;10.57;;;7.40;;
6358;SDS011;3212;51.460;11.868;2023-05-07T19:53:41;10.43;;;7.37;;
6358;SDS011;3212;51.460;11.868;2023-05-07T19:57:03;10.57;;;7.63;;
6358;SDS011;3212;51.460;11.868;2023-05-07T20:00:25;11.73;;;7.80;;
6358;SDS011;3212;51.460;11.868;2023-05-07T20:03:47;11.33;;;7.30;;
6358;SDS011;3212;51.460;11.868;2023-05-07T20:07:09;10.00;;;7.10;;
6358;SDS011;3212;51.460;11.868;2023-05-07T20:10:31;11.07;;;7.43;;
6358;SDS011;3212;51.460;11.868;2023-05-07T20:13:52;9.47;;;7.33;;
6358;SDS011;3212;51.460;11.868;2023-05-07T20:17:14;12.70;;;7.37;;
6358;SDS011;3212;51.460;11.868;2023-05-07T20:20:36;12.67;;;7.60;;
6358;SDS011;3212;51.460;11.868;2023-05-07T20:23:58;9.60;;;5.80;;
6358;SDS011;3212;51.460;11.868;2023-05-07T20:27:20;10.47;;;7.50;;
6358;SDS011;3212;51.460;11.868;2023-05-07T20:30:42;10.10;;;7.30;;
6358;SDS011;3212;51.460;11.868;2023-05-07T20:34:04;10.30;;;6.83;;
6358;SDS011;3212;51.460;11.868;2023-05-07T20:37:26;13.07;;;7.47;;
6358;SDS011;3212;51.460;11.868;2023-05-07T20:40:48;8.70;;;6.50;;